sensor_id;sensor_type;location;lat;lon;timestamp;temperature;humidity
67722;SHT31;58309;45.292;11.820;2022-11-15T00:01:10;7.89;99.99
67722;SHT31;58309;45.292;11.820;2022-11-15T00:03:39;7.86;99.99
67722;SHT31;58309;45.292;11.820;2022-11-15T00:06:04;7.90;99.99
67722;SHT31;58309;45.292;11.820;2022-11-15T00:08:32;7.94;99.99
67722;SHT31;58309;45.292;11.820;2022-11-15T00:10:59;8.10;99.99
67722;SHT31;58309;45.292;11.820;2022-11-15T00:13:25;8.14;99.99
67722;SHT31;58309;45.292;11.820;2022-11-15T00:15:51;8.15;99.99
67722;SHT31;58309;45.292;11.820;2022-11-15T00:18:17;8.14;99.99
67722;SHT31;58309;45.292;11.820;2022-11-15T00:20:43;8.11;99.99
67722;SHT31;58309;45.292;11.820;2022-11-15T00:23:08;8.12;99.99
67722;SHT31;58309;45.292;11.820;2022-11-15T00:25:34;8.14;99.99
67722;SHT31;58309;45.292;11.820;2022-11-15T00:28:00;8.07;99.99
67722;SHT31;58309;45.292;11.820;2022-11-15T00:30:27;8.01;99.99
67722;SHT31;58309;45.292;11.820;2022-11-15T00:32:53;8.04;99.99
67722;SHT31;58309;45.292;11.820;2022-11-15T00:35:18;8.04;99.99
67722;SHT31;58309;45.292;11.820;2022-11-15T00:37:44;8.02;99.99
67722;SHT31;58309;45.292;11.820;2022-11-15T00:40:10;8.05;99.99
67722;SHT31;58309;45.292;11.820;2022-11-15T00:42:38;7.97;99.99
67722;SHT31;58309;45.292;11.820;2022-11-15T00:45:03;7.91;99.99
67722;SHT31;58309;45.292;11.820;2022-11-15T00:47:29;7.87;99.99
67722;SHT31;58309;45.292;11.820;2022-11-15T00:49:54;7.84;99.99
67722;SHT31;58309;45.292;11.820;2022-11-15T00:52:20;7.77;99.99
67722;SHT31;58309;45.292;11.820;2022-11-15T00:54:45;7.76;99.99
67722;SHT31;58309;45.292;11.820;2022-11-15T00:57:11;7.73;99.99
67722;SHT31;58309;45.292;11.820;2022-11-15T00:59:36;7.73;99.99
67722;SHT31;58309;45.292;11.820;2022-11-15T01:02:01;7.76;99.99
67722;SHT31;58309;45.292;11.820;2022-11-15T01:04:27;7.70;99.99
67722;SHT31;58309;45.292;11.820;2022-11-15T01:06:53;7.69;99.99
67722;SHT31;58309;45.292;11.820;2022-11-15T01:09:18;7.65;99.99
67722;SHT31;58309;45.292;11.820;2022-11-15T01:11:44;7.56;99.99
67722;SHT31;58309;45.292;11.820;2022-11-15T01:14:09;7.53;99.99
67722;SHT31;58309;45.292;11.820;2022-11-15T01:16:35;7.55;99.99
67722;SHT31;58309;45.292;11.820;2022-11-15T01:19:01;7.60;99.99
67722;SHT31;58309;45.292;11.820;2022-11-15T01:21:27;7.70;99.99
67722;SHT31;58309;45.292;11.820;2022-11-15T01:23:54;7.83;99.99
67722;SHT31;58309;45.292;11.820;2022-11-15T01:26:20;7.97;99.99
67722;SHT31;58309;45.292;11.820;2022-11-15T01:28:46;8.02;99.99
67722;SHT31;58309;45.292;11.820;2022-11-15T01:31:14;8.07;99.99
67722;SHT31;58309;45.292;11.820;2022-11-15T01:33:39;8.04;99.99
67722;SHT31;58309;45.292;11.820;2022-11-15T01:36:08;8.04;99.99
67722;SHT31;58309;45.292;11.820;2022-11-15T01:38:36;7.98;99.99
67722;SHT31;58309;45.292;11.820;2022-11-15T01:41:01;7.97;99.99
67722;SHT31;58309;45.292;11.820;2022-11-15T01:43:29;7.94;99.99
67722;SHT31;58309;45.292;11.820;2022-11-15T01:46:12;7.95;99.99
67722;SHT31;58309;45.292;11.820;2022-11-15T01:48:40;7.95;99.99
67722;SHT31;58309;45.292;11.820;2022-11-15T01:51:09;7.95;99.99
67722;SHT31;58309;45.292;11.820;2022-11-15T01:53:38;7.98;99.99
67722;SHT31;58309;45.292;11.820;2022-11-15T01:56:09;7.98;99.99
67722;SHT31;58309;45.292;11.820;2022-11-15T01:58:36;7.94;99.99
67722;SHT31;58309;45.292;11.820;2022-11-15T02:01:02;7.87;99.99
67722;SHT31;58309;45.292;11.820;2022-11-15T02:03:35;7.84;99.99
67722;SHT31;58309;45.292;11.820;2022-11-15T02:06:05;7.90;99.99
67722;SHT31;58309;45.292;11.820;2022-11-15T02:08:30;7.93;99.99
67722;SHT31;58309;45.292;11.820;2022-11-15T02:10:56;7.91;99.99
67722;SHT31;58309;45.292;11.820;2022-11-15T02:13:22;7.95;99.99
67722;SHT31;58309;45.292;11.820;2022-11-15T02:19:02;7.65;99.99
67722;SHT31;58309;45.292;11.820;2022-11-15T02:32:40;7.02;99.99
67722;SHT31;58309;45.292;11.820;2022-11-15T02:35:43;7.05;99.99
67722;SHT31;58309;45.292;11.820;2022-11-15T02:38:19;7.12;99.99
67722;SHT31;58309;45.292;11.820;2022-11-15T02:40:56;7.23;99.99
67722;SHT31;58309;45.292;11.820;2022-11-15T02:43:47;7.09;99.99
67722;SHT31;58309;45.292;11.820;2022-11-15T02:46:36;7.04;99.99
67722;SHT31;58309;45.292;11.820;2022-11-15T02:49:24;7.11;99.99
67722;SHT31;58309;45.292;11.820;2022-11-15T02:51:51;7.05;99.99
67722;SHT31;58309;45.292;11.820;2022-11-15T02:54:23;7.02;99.99
67722;SHT31;58309;45.292;11.820;2022-11-15T02:56:50;6.90;99.99
67722;SHT31;58309;45.292;11.820;2022-11-15T03:07:53;6.60;99.99
67722;SHT31;58309;45.292;11.820;2022-11-15T03:13:31;6.37;99.99
67722;SHT31;58309;45.292;11.820;2022-11-15T03:18:40;6.47;99.99
67722;SHT31;58309;45.292;11.820;2022-11-15T03:21:08;6.44;99.99
67722;SHT31;58309;45.292;11.820;2022-11-15T03:23:36;6.34;99.99
67722;SHT31;58309;45.292;11.820;2022-11-15T03:26:06;6.26;99.99
67722;SHT31;58309;45.292;11.820;2022-11-15T03:28:51;6.20;99.99
67722;SHT31;58309;45.292;11.820;2022-11-15T03:31:19;6.19;99.99
67722;SHT31;58309;45.292;11.820;2022-11-15T03:34:07;6.03;99.99
67722;SHT31;58309;45.292;11.820;2022-11-15T03:36:35;5.95;99.99
67722;SHT31;58309;45.292;11.820;2022-11-15T03:39:05;5.85;99.99
67722;SHT31;58309;45.292;11.820;2022-11-15T03:41:39;5.81;99.99
67722;SHT31;58309;45.292;11.820;2022-11-15T03:47:21;5.81;99.99
67722;SHT31;58309;45.292;11.820;2022-11-15T03:49:56;6.03;99.99
67722;SHT31;58309;45.292;11.820;2022-11-15T03:52:23;6.28;99.99
67722;SHT31;58309;45.292;11.820;2022-11-15T03:54:56;6.33;99.99
67722;SHT31;58309;45.292;11.820;2022-11-15T03:57:22;6.37;99.99
67722;SHT31;58309;45.292;11.820;2022-11-15T03:59:47;6.41;99.99
67722;SHT31;58309;45.292;11.820;2022-11-15T04:02:13;6.36;99.99
67722;SHT31;58309;45.292;11.820;2022-11-15T04:04:39;6.43;99.99
67722;SHT31;58309;45.292;11.820;2022-11-15T04:07:05;6.44;99.99
67722;SHT31;58309;45.292;11.820;2022-11-15T04:09:30;6.39;99.99
67722;SHT31;58309;45.292;11.820;2022-11-15T04:11:56;6.46;99.99
67722;SHT31;58309;45.292;11.820;2022-11-15T04:14:21;6.50;99.99
67722;SHT31;58309;45.292;11.820;2022-11-15T04:16:47;6.51;99.99
67722;SHT31;58309;45.292;11.820;2022-11-15T04:19:12;6.47;99.99
67722;SHT31;58309;45.292;11.820;2022-11-15T04:21:56;6.40;99.99
67722;SHT31;58309;45.292;11.820;2022-11-15T04:24:40;6.30;99.99
67722;SHT31;58309;45.292;11.820;2022-11-15T04:27:06;6.19;99.99
67722;SHT31;58309;45.292;11.820;2022-11-15T04:29:31;6.16;99.99
67722;SHT31;58309;45.292;11.820;2022-11-15T04:32:02;6.10;99.99
67722;SHT31;58309;45.292;11.820;2022-11-15T04:34:28;6.09;99.99
67722;SHT31;58309;45.292;11.820;2022-11-15T04:36:53;6.02;99.99
67722;SHT31;58309;45.292;11.820;2022-11-15T04:39:45;6.02;99.99
67722;SHT31;58309;45.292;11.820;2022-11-15T04:42:10;5.89;99.99
67722;SHT31;58309;45.292;11.820;2022-11-15T04:44:36;5.89;99.99
67722;SHT31;58309;45.292;11.820;2022-11-15T04:47:02;5.87;99.99
67722;SHT31;58309;45.292;11.820;2022-11-15T04:49:27;5.92;99.99
67722;SHT31;58309;45.292;11.820;2022-11-15T04:51:53;5.89;99.99
67722;SHT31;58309;45.292;11.820;2022-11-15T04:54:18;5.98;99.99
67722;SHT31;58309;45.292;11.820;2022-11-15T04:56:44;6.06;99.99
67722;SHT31;58309;45.292;11.820;2022-11-15T04:59:09;6.20;99.99
67722;SHT31;58309;45.292;11.820;2022-11-15T05:01:35;6.26;99.99
67722;SHT31;58309;45.292;11.820;2022-11-15T05:04:00;6.23;99.99
67722;SHT31;58309;45.292;11.820;2022-11-15T05:06:45;6.16;99.99
67722;SHT31;58309;45.292;11.820;2022-11-15T05:09:10;6.20;99.99
67722;SHT31;58309;45.292;11.820;2022-11-15T05:11:38;6.26;99.99
67722;SHT31;58309;45.292;11.820;2022-11-15T05:14:03;6.25;99.99
67722;SHT31;58309;45.292;11.820;2022-11-15T05:16:29;6.18;99.99
67722;SHT31;58309;45.292;11.820;2022-11-15T05:18:54;6.15;99.99
67722;SHT31;58309;45.292;11.820;2022-11-15T05:21:20;6.13;99.99
67722;SHT31;58309;45.292;11.820;2022-11-15T05:23:46;6.15;99.99
67722;SHT31;58309;45.292;11.820;2022-11-15T05:26:12;6.18;99.99
67722;SHT31;58309;45.292;11.820;2022-11-15T05:28:38;6.15;99.99
67722;SHT31;58309;45.292;11.820;2022-11-15T05:31:22;6.18;99.99
67722;SHT31;58309;45.292;11.820;2022-11-15T05:33:48;6.20;99.99
67722;SHT31;58309;45.292;11.820;2022-11-15T05:36:37;6.26;99.99
67722;SHT31;58309;45.292;11.820;2022-11-15T05:39:04;6.18;99.99
67722;SHT31;58309;45.292;11.820;2022-11-15T05:41:45;6.18;99.99
67722;SHT31;58309;45.292;11.820;2022-11-15T05:44:17;6.16;99.99
67722;SHT31;58309;45.292;11.820;2022-11-15T05:46:45;6.15;99.99
67722;SHT31;58309;45.292;11.820;2022-11-15T05:49:13;6.23;99.99
67722;SHT31;58309;45.292;11.820;2022-11-15T05:51:41;6.34;99.99
67722;SHT31;58309;45.292;11.820;2022-11-15T05:54:07;6.34;99.99
67722;SHT31;58309;45.292;11.820;2022-11-15T05:56:33;6.40;99.99
67722;SHT31;58309;45.292;11.820;2022-11-15T05:58:58;6.49;99.99
67722;SHT31;58309;45.292;11.820;2022-11-15T06:01:26;6.56;99.99
67722;SHT31;58309;45.292;11.820;2022-11-15T06:03:52;6.57;99.99
67722;SHT31;58309;45.292;11.820;2022-11-15T06:06:18;6.56;99.99
67722;SHT31;58309;45.292;11.820;2022-11-15T06:08:43;6.53;99.99
67722;SHT31;58309;45.292;11.820;2022-11-15T06:11:09;6.56;99.99
67722;SHT31;58309;45.292;11.820;2022-11-15T06:13:34;6.56;99.99
67722;SHT31;58309;45.292;11.820;2022-11-15T06:16:00;6.56;99.99
67722;SHT31;58309;45.292;11.820;2022-11-15T06:18:26;6.61;99.99
67722;SHT31;58309;45.292;11.820;2022-11-15T06:20:52;6.63;99.99
67722;SHT31;58309;45.292;11.820;2022-11-15T06:23:17;6.67;99.99
67722;SHT31;58309;45.292;11.820;2022-11-15T06:25:43;6.68;99.99
67722;SHT31;58309;45.292;11.820;2022-11-15T06:28:08;6.67;99.99
67722;SHT31;58309;45.292;11.820;2022-11-15T06:30:34;6.57;99.99
67722;SHT31;58309;45.292;11.820;2022-11-15T06:33:01;6.53;99.99
67722;SHT31;58309;45.292;11.820;2022-11-15T06:35:27;6.56;99.99
67722;SHT31;58309;45.292;11.820;2022-11-15T06:37:53;6.58;99.99
67722;SHT31;58309;45.292;11.820;2022-11-15T06:40:18;6.53;99.99
67722;SHT31;58309;45.292;11.820;2022-11-15T06:42:44;6.61;99.99
67722;SHT31;58309;45.292;11.820;2022-11-15T06:45:09;6.61;99.99
67722;SHT31;58309;45.292;11.820;2022-11-15T06:47:35;6.70;99.99
67722;SHT31;58309;45.292;11.820;2022-11-15T06:50:00;6.77;99.99
67722;SHT31;58309;45.292;11.820;2022-11-15T06:52:26;6.83;99.99
67722;SHT31;58309;45.292;11.820;2022-11-15T06:54:52;6.85;99.99
67722;SHT31;58309;45.292;11.820;2022-11-15T06:57:17;6.91;99.99
67722;SHT31;58309;45.292;11.820;2022-11-15T06:59:43;6.99;99.99
67722;SHT31;58309;45.292;11.820;2022-11-15T07:02:12;6.97;99.99
67722;SHT31;58309;45.292;11.820;2022-11-15T07:04:38;6.95;99.99
67722;SHT31;58309;45.292;11.820;2022-11-15T07:07:03;6.98;99.99
67722;SHT31;58309;45.292;11.820;2022-11-15T07:09:29;7.01;99.99
67722;SHT31;58309;45.292;11.820;2022-11-15T07:11:54;7.04;99.99
67722;SHT31;58309;45.292;11.820;2022-11-15T07:14:20;7.04;99.99
67722;SHT31;58309;45.292;11.820;2022-11-15T07:16:45;7.05;99.99
67722;SHT31;58309;45.292;11.820;2022-11-15T07:19:10;7.05;99.99
67722;SHT31;58309;45.292;11.820;2022-11-15T07:21:36;7.18;99.99
67722;SHT31;58309;45.292;11.820;2022-11-15T07:24:01;7.25;99.99
67722;SHT31;58309;45.292;11.820;2022-11-15T07:26:27;7.30;99.99
67722;SHT31;58309;45.292;11.820;2022-11-15T07:28:52;7.28;99.99
67722;SHT31;58309;45.292;11.820;2022-11-15T07:31:18;7.25;99.99
67722;SHT31;58309;45.292;11.820;2022-11-15T07:33:43;7.36;99.99
67722;SHT31;58309;45.292;11.820;2022-11-15T07:36:09;7.33;99.99
67722;SHT31;58309;45.292;11.820;2022-11-15T07:38:35;7.46;99.99
67722;SHT31;58309;45.292;11.820;2022-11-15T07:41:03;7.56;99.99
67722;SHT31;58309;45.292;11.820;2022-11-15T07:43:29;7.50;99.99
67722;SHT31;58309;45.292;11.820;2022-11-15T07:45:55;7.63;99.99
67722;SHT31;58309;45.292;11.820;2022-11-15T07:48:21;7.70;99.99
67722;SHT31;58309;45.292;11.820;2022-11-15T07:50:47;7.73;99.99
67722;SHT31;58309;45.292;11.820;2022-11-15T07:53:13;7.70;99.99
67722;SHT31;58309;45.292;11.820;2022-11-15T07:55:40;7.69;99.99
67722;SHT31;58309;45.292;11.820;2022-11-15T07:58:09;7.79;99.99
67722;SHT31;58309;45.292;11.820;2022-11-15T08:00:35;7.81;99.99
67722;SHT31;58309;45.292;11.820;2022-11-15T08:03:15;7.84;99.99
67722;SHT31;58309;45.292;11.820;2022-11-15T08:05:41;7.87;99.99
67722;SHT31;58309;45.292;11.820;2022-11-15T08:08:09;7.95;99.99
67722;SHT31;58309;45.292;11.820;2022-11-15T08:10:35;7.90;99.99
67722;SHT31;58309;45.292;11.820;2022-11-15T08:13:06;8.05;99.99
67722;SHT31;58309;45.292;11.820;2022-11-15T08:15:33;7.95;99.65
67722;SHT31;58309;45.292;11.820;2022-11-15T08:18:01;7.89;99.75
67722;SHT31;58309;45.292;11.820;2022-11-15T08:20:28;7.83;99.99
67722;SHT31;58309;45.292;11.820;2022-11-15T08:23:01;7.73;99.99
67722;SHT31;58309;45.292;11.820;2022-11-15T08:25:28;7.67;99.99
67722;SHT31;58309;45.292;11.820;2022-11-15T08:28:00;7.69;99.99
67722;SHT31;58309;45.292;11.820;2022-11-15T08:30:27;7.69;99.99
67722;SHT31;58309;45.292;11.820;2022-11-15T08:32:53;7.74;99.99
67722;SHT31;58309;45.292;11.820;2022-11-15T08:35:21;7.71;99.99
67722;SHT31;58309;45.292;11.820;2022-11-15T08:37:47;7.74;99.99
67722;SHT31;58309;45.292;11.820;2022-11-15T08:40:13;7.74;99.99
67722;SHT31;58309;45.292;11.820;2022-11-15T08:42:39;7.71;99.99
67722;SHT31;58309;45.292;11.820;2022-11-15T08:45:06;7.70;99.99
67722;SHT31;58309;45.292;11.820;2022-11-15T08:47:32;7.73;99.99
67722;SHT31;58309;45.292;11.820;2022-11-15T08:49:57;7.79;99.99
67722;SHT31;58309;45.292;11.820;2022-11-15T08:52:23;7.86;99.99
67722;SHT31;58309;45.292;11.820;2022-11-15T08:54:48;7.86;99.99
67722;SHT31;58309;45.292;11.820;2022-11-15T08:57:14;7.81;99.99
67722;SHT31;58309;45.292;11.820;2022-11-15T08:59:39;7.95;99.99
67722;SHT31;58309;45.292;11.820;2022-11-15T09:02:05;8.05;99.99
67722;SHT31;58309;45.292;11.820;2022-11-15T09:04:31;8.24;99.99
67722;SHT31;58309;45.292;11.820;2022-11-15T09:06:57;8.37;99.99
67722;SHT31;58309;45.292;11.820;2022-11-15T09:09:23;8.39;99.20
67722;SHT31;58309;45.292;11.820;2022-11-15T09:11:49;8.37;99.04
67722;SHT31;58309;45.292;11.820;2022-11-15T09:14:16;8.35;99.43
67722;SHT31;58309;45.292;11.820;2022-11-15T09:16:41;8.28;99.38
67722;SHT31;58309;45.292;11.820;2022-11-15T09:19:07;8.21;99.27
67722;SHT31;58309;45.292;11.820;2022-11-15T09:21:33;8.25;99.99
67722;SHT31;58309;45.292;11.820;2022-11-15T09:23:59;8.31;99.90
67722;SHT31;58309;45.292;11.820;2022-11-15T09:26:24;8.35;99.98
67722;SHT31;58309;45.292;11.820;2022-11-15T09:28:50;8.31;99.35
67722;SHT31;58309;45.292;11.820;2022-11-15T09:31:16;8.41;99.73
67722;SHT31;58309;45.292;11.820;2022-11-15T09:33:44;8.42;99.39
67722;SHT31;58309;45.292;11.820;2022-11-15T09:36:11;8.38;98.78
67722;SHT31;58309;45.292;11.820;2022-11-15T09:38:36;8.45;98.80
67722;SHT31;58309;45.292;11.820;2022-11-15T09:41:22;8.59;99.52
67722;SHT31;58309;45.292;11.820;2022-11-15T09:44:26;8.82;99.68
67722;SHT31;58309;45.292;11.820;2022-11-15T09:49:43;8.96;98.55
67722;SHT31;58309;45.292;11.820;2022-11-15T09:52:10;9.09;98.79
67722;SHT31;58309;45.292;11.820;2022-11-15T09:54:38;9.01;97.72
67722;SHT31;58309;45.292;11.820;2022-11-15T09:57:12;9.11;98.25
67722;SHT31;58309;45.292;11.820;2022-11-15T10:05:21;9.52;95.85
67722;SHT31;58309;45.292;11.820;2022-11-15T10:10:25;9.61;95.80
67722;SHT31;58309;45.292;11.820;2022-11-15T10:12:53;10.01;96.91
67722;SHT31;58309;45.292;11.820;2022-11-15T10:15:19;10.51;95.49
67722;SHT31;58309;45.292;11.820;2022-11-15T10:18:13;10.80;92.88
67722;SHT31;58309;45.292;11.820;2022-11-15T10:23:06;10.53;93.74
67722;SHT31;58309;45.292;11.820;2022-11-15T10:25:35;10.40;93.72
67722;SHT31;58309;45.292;11.820;2022-11-15T10:28:16;10.37;95.03
67722;SHT31;58309;45.292;11.820;2022-11-15T10:30:46;10.28;95.49
67722;SHT31;58309;45.292;11.820;2022-11-15T10:49:20;9.64;97.01
67722;SHT31;58309;45.292;11.820;2022-11-15T10:51:56;9.74;97.49
67722;SHT31;58309;45.292;11.820;2022-11-15T10:54:27;9.82;97.63
67722;SHT31;58309;45.292;11.820;2022-11-15T10:56:55;9.86;97.56
67722;SHT31;58309;45.292;11.820;2022-11-15T10:59:32;9.92;96.74
67722;SHT31;58309;45.292;11.820;2022-11-15T11:02:01;10.01;97.61
67722;SHT31;58309;45.292;11.820;2022-11-15T11:04:26;10.10;97.23
67722;SHT31;58309;45.292;11.820;2022-11-15T11:06:59;10.29;96.78
67722;SHT31;58309;45.292;11.820;2022-11-15T11:09:32;10.37;96.62
67722;SHT31;58309;45.292;11.820;2022-11-15T11:11:58;10.47;95.32
67722;SHT31;58309;45.292;11.820;2022-11-15T11:17:15;10.43;94.87
67722;SHT31;58309;45.292;11.820;2022-11-15T11:25:18;10.47;95.85
67722;SHT31;58309;45.292;11.820;2022-11-15T11:34:00;10.30;95.36
67722;SHT31;58309;45.292;11.820;2022-11-15T11:36:29;10.43;96.93
67722;SHT31;58309;45.292;11.820;2022-11-15T11:39:24;10.36;95.59
67722;SHT31;58309;45.292;11.820;2022-11-15T11:41:55;10.43;95.61
67722;SHT31;58309;45.292;11.820;2022-11-15T11:44:54;10.47;96.25
67722;SHT31;58309;45.292;11.820;2022-11-15T11:47:24;10.47;96.35
67722;SHT31;58309;45.292;11.820;2022-11-15T11:50:00;10.53;96.02
67722;SHT31;58309;45.292;11.820;2022-11-15T11:52:34;10.53;95.87
67722;SHT31;58309;45.292;11.820;2022-11-15T11:55:32;10.63;96.31
67722;SHT31;58309;45.292;11.820;2022-11-15T11:58:09;10.64;95.91
67722;SHT31;58309;45.292;11.820;2022-11-15T12:00:39;10.60;95.58
67722;SHT31;58309;45.292;11.820;2022-11-15T12:03:26;10.71;96.03
67722;SHT31;58309;45.292;11.820;2022-11-15T12:05:54;10.81;95.84
67722;SHT31;58309;45.292;11.820;2022-11-15T12:13:38;10.65;96.09
67722;SHT31;58309;45.292;11.820;2022-11-15T12:16:20;10.67;96.12
67722;SHT31;58309;45.292;11.820;2022-11-15T12:18:50;10.68;95.23
67722;SHT31;58309;45.292;11.820;2022-11-15T12:24:42;10.75;96.52
67722;SHT31;58309;45.292;11.820;2022-11-15T12:27:18;10.61;96.31
67722;SHT31;58309;45.292;11.820;2022-11-15T12:29:54;10.67;96.61
67722;SHT31;58309;45.292;11.820;2022-11-15T12:32:31;10.65;96.67
67722;SHT31;58309;45.292;11.820;2022-11-15T12:34:59;10.73;97.06
67722;SHT31;58309;45.292;11.820;2022-11-15T12:42:42;10.70;97.05
67722;SHT31;58309;45.292;11.820;2022-11-15T12:45:36;10.68;96.94
67722;SHT31;58309;45.292;11.820;2022-11-15T12:58:58;10.49;97.22
67722;SHT31;58309;45.292;11.820;2022-11-15T13:07:04;10.46;97.43
67722;SHT31;58309;45.292;11.820;2022-11-15T13:12:03;10.49;97.43
67722;SHT31;58309;45.292;11.820;2022-11-15T13:17:43;10.47;97.55
67722;SHT31;58309;45.292;11.820;2022-11-15T13:22:46;10.40;97.68
67722;SHT31;58309;45.292;11.820;2022-11-15T13:28:37;10.34;98.32
67722;SHT31;58309;45.292;11.820;2022-11-15T13:33:43;10.28;98.75
67722;SHT31;58309;45.292;11.820;2022-11-15T13:36:23;10.24;98.91
67722;SHT31;58309;45.292;11.820;2022-11-15T13:39:12;10.22;99.20
67722;SHT31;58309;45.292;11.820;2022-11-15T13:41:48;10.20;99.16
67722;SHT31;58309;45.292;11.820;2022-11-15T13:44:26;10.19;99.37
67722;SHT31;58309;45.292;11.820;2022-11-15T13:47:03;10.17;99.47
67722;SHT31;58309;45.292;11.820;2022-11-15T13:49:31;10.16;99.53
67722;SHT31;58309;45.292;11.820;2022-11-15T13:51:58;10.13;99.70
67722;SHT31;58309;45.292;11.820;2022-11-15T13:54:40;10.14;99.68
67722;SHT31;58309;45.292;11.820;2022-11-15T14:00:41;10.09;99.81
67722;SHT31;58309;45.292;11.820;2022-11-15T14:06:11;10.06;99.92
67722;SHT31;58309;45.292;11.820;2022-11-15T14:08:38;10.05;99.86
67722;SHT31;58309;45.292;11.820;2022-11-15T14:11:19;10.03;99.83
67722;SHT31;58309;45.292;11.820;2022-11-15T14:16:43;10.06;99.90
67722;SHT31;58309;45.292;11.820;2022-11-15T14:24:47;10.08;99.99
67722;SHT31;58309;45.292;11.820;2022-11-15T14:27:29;10.05;99.99
67722;SHT31;58309;45.292;11.820;2022-11-15T14:29:55;10.05;99.99
67722;SHT31;58309;45.292;11.820;2022-11-15T14:34:54;10.01;99.99
67722;SHT31;58309;45.292;11.820;2022-11-15T14:37:31;9.98;99.99
67722;SHT31;58309;45.292;11.820;2022-11-15T14:39:59;9.96;99.99
67722;SHT31;58309;45.292;11.820;2022-11-15T14:42:25;9.98;99.99
67722;SHT31;58309;45.292;11.820;2022-11-15T14:44:51;9.96;99.99
67722;SHT31;58309;45.292;11.820;2022-11-15T14:47:17;9.99;99.99
67722;SHT31;58309;45.292;11.820;2022-11-15T14:49:43;9.98;99.99
67722;SHT31;58309;45.292;11.820;2022-11-15T14:52:27;10.01;99.99
67722;SHT31;58309;45.292;11.820;2022-11-15T14:54:56;10.02;99.99
67722;SHT31;58309;45.292;11.820;2022-11-15T14:57:23;10.03;99.99
67722;SHT31;58309;45.292;11.820;2022-11-15T14:59:49;10.05;99.99
67722;SHT31;58309;45.292;11.820;2022-11-15T15:02:20;10.01;99.99
67722;SHT31;58309;45.292;11.820;2022-11-15T15:04:46;10.03;99.99
67722;SHT31;58309;45.292;11.820;2022-11-15T15:07:12;10.02;99.99
67722;SHT31;58309;45.292;11.820;2022-11-15T15:09:38;10.01;99.99
67722;SHT31;58309;45.292;11.820;2022-11-15T15:12:05;9.96;99.99
67722;SHT31;58309;45.292;11.820;2022-11-15T15:14:33;9.96;99.99
67722;SHT31;58309;45.292;11.820;2022-11-15T15:16:59;9.98;99.99
67722;SHT31;58309;45.292;11.820;2022-11-15T15:19:24;9.93;99.99
67722;SHT31;58309;45.292;11.820;2022-11-15T15:21:50;9.91;99.99
67722;SHT31;58309;45.292;11.820;2022-11-15T15:24:15;9.91;99.99
67722;SHT31;58309;45.292;11.820;2022-11-15T15:26:41;9.88;99.99
67722;SHT31;58309;45.292;11.820;2022-11-15T15:29:08;9.88;99.99
67722;SHT31;58309;45.292;11.820;2022-11-15T15:31:34;9.86;99.99
67722;SHT31;58309;45.292;11.820;2022-11-15T15:34:00;9.85;99.99
67722;SHT31;58309;45.292;11.820;2022-11-15T15:36:26;9.89;99.99
67722;SHT31;58309;45.292;11.820;2022-11-15T15:38:51;9.88;99.99
67722;SHT31;58309;45.292;11.820;2022-11-15T15:41:18;9.88;99.99
67722;SHT31;58309;45.292;11.820;2022-11-15T15:43:43;9.88;99.99
67722;SHT31;58309;45.292;11.820;2022-11-15T15:46:11;9.86;99.99
67722;SHT31;58309;45.292;11.820;2022-11-15T15:48:37;9.85;99.99
67722;SHT31;58309;45.292;11.820;2022-11-15T15:51:05;9.86;99.99
67722;SHT31;58309;45.292;11.820;2022-11-15T15:53:30;9.83;99.99
67722;SHT31;58309;45.292;11.820;2022-11-15T15:55:56;9.82;99.99
67722;SHT31;58309;45.292;11.820;2022-11-15T15:58:22;9.81;99.99
67722;SHT31;58309;45.292;11.820;2022-11-15T16:00:47;9.79;99.99
67722;SHT31;58309;45.292;11.820;2022-11-15T16:03:14;9.81;99.99
67722;SHT31;58309;45.292;11.820;2022-11-15T16:05:40;9.78;99.99
67722;SHT31;58309;45.292;11.820;2022-11-15T16:08:05;9.77;99.99
67722;SHT31;58309;45.292;11.820;2022-11-15T16:10:32;9.78;99.99
67722;SHT31;58309;45.292;11.820;2022-11-15T16:13:02;9.77;99.99
67722;SHT31;58309;45.292;11.820;2022-11-15T16:15:31;9.77;99.99
67722;SHT31;58309;45.292;11.820;2022-11-15T16:17:59;9.72;99.99
67722;SHT31;58309;45.292;11.820;2022-11-15T16:20:35;9.75;99.99
67722;SHT31;58309;45.292;11.820;2022-11-15T16:23:03;9.72;99.99
67722;SHT31;58309;45.292;11.820;2022-11-15T16:25:32;9.77;99.99
67722;SHT31;58309;45.292;11.820;2022-11-15T16:27:58;9.74;99.99
67722;SHT31;58309;45.292;11.820;2022-11-15T16:30:24;9.75;99.99
67722;SHT31;58309;45.292;11.820;2022-11-15T16:32:49;9.78;99.99
67722;SHT31;58309;45.292;11.820;2022-11-15T16:35:16;9.82;99.99
67722;SHT31;58309;45.292;11.820;2022-11-15T16:37:42;9.82;99.99
67722;SHT31;58309;45.292;11.820;2022-11-15T16:40:25;9.83;99.99
67722;SHT31;58309;45.292;11.820;2022-11-15T16:42:51;9.82;99.99
67722;SHT31;58309;45.292;11.820;2022-11-15T16:45:16;9.85;99.99
67722;SHT31;58309;45.292;11.820;2022-11-15T16:47:42;9.85;99.99
67722;SHT31;58309;45.292;11.820;2022-11-15T16:50:29;9.89;99.99
67722;SHT31;58309;45.292;11.820;2022-11-15T16:52:57;9.92;99.99
67722;SHT31;58309;45.292;11.820;2022-11-15T16:55:25;9.88;99.99
67722;SHT31;58309;45.292;11.820;2022-11-15T16:57:52;9.85;99.99
67722;SHT31;58309;45.292;11.820;2022-11-15T17:00:19;9.88;99.99
67722;SHT31;58309;45.292;11.820;2022-11-15T17:02:46;9.88;99.99
67722;SHT31;58309;45.292;11.820;2022-11-15T17:05:12;9.88;99.99
67722;SHT31;58309;45.292;11.820;2022-11-15T17:07:40;9.88;99.99
67722;SHT31;58309;45.292;11.820;2022-11-15T17:10:08;9.85;99.99
67722;SHT31;58309;45.292;11.820;2022-11-15T17:12:34;9.83;99.99
67722;SHT31;58309;45.292;11.820;2022-11-15T17:15:00;9.83;99.99
67722;SHT31;58309;45.292;11.820;2022-11-15T17:17:26;9.83;99.99
67722;SHT31;58309;45.292;11.820;2022-11-15T17:19:52;9.82;99.99
67722;SHT31;58309;45.292;11.820;2022-11-15T17:22:19;9.83;99.99
67722;SHT31;58309;45.292;11.820;2022-11-15T17:24:44;9.82;99.99
67722;SHT31;58309;45.292;11.820;2022-11-15T17:27:10;9.86;99.99
67722;SHT31;58309;45.292;11.820;2022-11-15T17:29:35;9.82;99.99
67722;SHT31;58309;45.292;11.820;2022-11-15T17:32:01;9.85;99.99
67722;SHT31;58309;45.292;11.820;2022-11-15T17:34:26;9.85;99.99
67722;SHT31;58309;45.292;11.820;2022-11-15T17:36:52;9.85;99.99
67722;SHT31;58309;45.292;11.820;2022-11-15T17:39:17;9.88;99.99
67722;SHT31;58309;45.292;11.820;2022-11-15T17:41:45;9.89;99.99
67722;SHT31;58309;45.292;11.820;2022-11-15T17:44:11;9.88;99.99
67722;SHT31;58309;45.292;11.820;2022-11-15T17:46:37;9.86;99.99
67722;SHT31;58309;45.292;11.820;2022-11-15T17:49:02;9.88;99.99
67722;SHT31;58309;45.292;11.820;2022-11-15T17:51:28;9.86;99.99
67722;SHT31;58309;45.292;11.820;2022-11-15T17:53:54;9.88;99.99
67722;SHT31;58309;45.292;11.820;2022-11-15T17:56:22;9.88;99.99